Time;durP1;ratioP1;P1;durP2;ratioP2;P2;SDS_P1;SDS_P2;PMS_P1;PMS_P2;Temp;Humidity;BMP_temperature;BMP_pressure;BME280_temperature;BME280_humidity;BME280_pressure;Samples;Min_cycle;Max_cycle;Signal;HPM_P1;HPM_P2
2021/01/03 00:00:21;;;;;;;48.80;26.23;;;;;;;;;;5051270;28;20100;-55
2021/01/03 00:02:47;;;;;;;40.10;25.17;;;;;;;;;;5083859;28;20058;-56
2021/01/03 00:05:13;;;;;;;43.07;24.80;;;;;;;;;;5071085;28;20100;-54
2021/01/03 00:07:38;;;;;;;42.27;24.43;;;;;;;;;;5075425;28;20023;-56
2021/01/03 00:10:05;;;;;;;40.57;23.70;;;;;;;;;;5058903;28;20017;-56
2021/01/03 00:12:30;;;;;;;42.10;24.37;;;;;;;;;;5071572;28;20136;-56
2021/01/03 00:14:55;;;;;;;42.77;25.00;;;;;;;;;;5065100;28;20107;-55
2021/01/03 00:17:21;;;;;;;50.03;25.37;;;;;;;;;;5053226;28;20115;-56
2021/01/03 00:19:46;;;;;;;46.80;24.53;;;;;;;;;;5069449;28;20078;-56
2021/01/03 00:22:11;;;;;;;50.33;28.17;;;;;;;;;;5059523;28;20016;-55
2021/01/03 00:24:36;;;;;;;50.20;30.20;;;;;;;;;;5070309;28;20039;-52
2021/01/03 00:27:01;;;;;;;51.43;29.07;;;;;;;;;;5063779;28;20021;-55
2021/01/03 00:29:26;;;;;;;50.27;27.47;;;;;;;;;;5068118;28;20033;-55
2021/01/03 00:31:52;;;;;;;46.43;27.40;;;;;;;;;;5071084;28;20013;-54
2021/01/03 00:34:18;;;;;;;52.10;28.60;;;;;;;;;;5058829;28;20016;-56
2021/01/03 00:36:43;;;;;;;59.13;28.80;;;;;;;;;;5070230;28;20479;-56
2021/01/03 00:39:08;;;;;;;53.00;27.10;;;;;;;;;;5066741;28;20174;-55
2021/01/03 00:41:34;;;;;;;48.67;27.20;;;;;;;;;;5070470;28;20020;-57
2021/01/03 00:43:59;;;;;;;52.90;28.97;;;;;;;;;;5071228;28;20287;-55
2021/01/03 00:46:24;;;;;;;50.83;27.87;;;;;;;;;;5075593;28;20021;-54
2021/01/03 00:48:50;;;;;;;52.83;29.30;;;;;;;;;;5071597;28;20040;-56
2021/01/03 00:51:15;;;;;;;48.43;27.70;;;;;;;;;;5072076;28;20024;-56
2021/01/03 00:53:40;;;;;;;52.93;27.83;;;;;;;;;;5071682;28;20024;-57
2021/01/03 00:56:05;;;;;;;59.80;30.70;;;;;;;;;;5078745;28;20490;-55
2021/01/03 00:58:31;;;;;;;54.40;29.67;;;;;;;;;;5069073;28;20534;-56
2021/01/03 01:00:56;;;;;;;58.17;30.40;;;;;;;;;;5065917;28;20387;-56
2021/01/03 01:03:21;;;;;;;55.63;30.27;;;;;;;;;;5071769;28;20111;-55
2021/01/03 01:05:46;;;;;;;55.63;31.03;;;;;;;;;;5075144;28;20115;-56
2021/01/03 01:08:12;;;;;;;63.97;33.87;;;;;;;;;;5074112;28;20017;-55
2021/01/03 01:10:37;;;;;;;65.37;34.37;;;;;;;;;;5061090;28;20090;-53
2021/01/03 01:13:02;;;;;;;59.20;30.60;;;;;;;;;;5065218;28;20031;-56
2021/01/03 01:15:28;;;;;;;62.10;32.63;;;;;;;;;;5072685;28;20021;-56
2021/01/03 01:17:55;;;;;;;62.70;32.10;;;;;;;;;;5074078;28;20115;-56
2021/01/03 01:20:21;;;;;;;62.17;32.50;;;;;;;;;;5065537;28;20051;-53
2021/01/03 01:22:46;;;;;;;59.93;31.67;;;;;;;;;;5074279;28;20502;-55
2021/01/03 01:25:13;;;;;;;55.77;29.93;;;;;;;;;;5068344;28;20040;-57
2021/01/03 01:27:38;;;;;;;63.93;32.13;;;;;;;;;;5068453;28;20388;-55
2021/01/03 01:30:05;;;;;;;62.57;33.40;;;;;;;;;;5061560;28;20023;-54
2021/01/03 01:32:30;;;;;;;67.27;34.37;;;;;;;;;;5073143;28;20025;-56
2021/01/03 01:34:55;;;;;;;66.07;32.90;;;;;;;;;;5074376;28;20028;-54
2021/01/03 01:37:20;;;;;;;60.73;31.97;;;;;;;;;;5070122;28;20020;-56
2021/01/03 01:39:46;;;;;;;56.83;28.27;;;;;;;;;;5065621;28;20383;-54
2021/01/03 01:42:11;;;;;;;58.80;31.63;;;;;;;;;;5060402;28;20169;-55
2021/01/03 01:44:36;;;;;;;61.30;31.47;;;;;;;;;;5071432;28;20407;-57
2021/01/03 01:47:06;;;;;;;62.83;32.00;;;;;;;;;;5073161;28;20029;-54
2021/01/03 01:49:37;;;;;;;58.57;31.03;;;;;;;;;;5068638;28;20036;-56
2021/01/03 01:52:02;;;;;;;57.03;29.93;;;;;;;;;;5059300;28;20474;-54
2021/01/03 01:54:29;;;;;;;61.73;32.97;;;;;;;;;;5080532;28;20086;-53
2021/01/03 01:57:02;;;;;;;63.80;32.33;;;;;;;;;;5072568;28;20031;-56
2021/01/03 01:59:58;;;;;;;60.13;30.70;;;;;;;;;;5053429;28;20476;-57
2021/01/03 02:02:26;;;;;;;60.42;31.55;;;;;;;;;;5070252;28;20085;-55
2021/01/03 02:05:00;;;;;;;61.77;29.20;;;;;;;;;;5058504;28;20036;-57
2021/01/03 02:07:25;;;;;;;66.25;33.45;;;;;;;;;;5054996;28;20074;-55
2021/01/03 02:10:03;;;;;;;75.63;37.37;;;;;;;;;;5058059;28;20107;-57
2021/01/03 02:12:31;;;;;;;67.23;34.43;;;;;;;;;;5068030;28;20050;-57
2021/01/03 02:14:57;;;;;;;68.67;34.63;;;;;;;;;;5072897;28;20024;-56
2021/01/03 02:17:22;;;;;;;72.70;36.37;;;;;;;;;;5072393;28;20008;-54
2021/01/03 02:19:47;;;;;;;70.40;34.90;;;;;;;;;;5069139;28;20111;-56
2021/01/03 02:22:23;;;;;;;65.37;31.50;;;;;;;;;;5068129;28;20021;-54
2021/01/03 02:25:11;;;;;;;67.13;34.43;;;;;;;;;;5072162;28;20040;-51
2021/01/03 02:27:55;;;;;;;67.80;32.77;;;;;;;;;;5056575;28;20214;-55
2021/01/03 02:30:21;;;;;;;62.40;31.90;;;;;;;;;;5068918;28;20146;-53
2021/01/03 02:32:48;;;;;;;64.10;33.57;;;;;;;;;;5063691;28;20050;-55
2021/01/03 02:35:14;;;;;;;60.27;33.23;;;;;;;;;;5070883;28;20020;-56
2021/01/03 02:37:41;;;;;;;54.83;29.30;;;;;;;;;;5059609;28;20467;-57
2021/01/03 02:40:10;;;;;;;60.53;32.13;;;;;;;;;;5066888;28;20032;-57
2021/01/03 02:42:36;;;;;;;57.03;30.37;;;;;;;;;;5069398;28;20025;-56
2021/01/03 02:45:04;;;;;;;59.70;31.30;;;;;;;;;;5069643;28;20020;-54
2021/01/03 02:47:31;;;;;;;55.63;30.77;;;;;;;;;;5072513;28;20029;-53
2021/01/03 02:49:56;;;;;;;56.07;30.17;;;;;;;;;;5057776;28;20487;-56
2021/01/03 02:52:26;;;;;;;54.87;29.73;;;;;;;;;;5064186;28;20016;-54
2021/01/03 02:54:52;;;;;;;54.30;29.67;;;;;;;;;;5071517;28;20078;-53
2021/01/03 02:57:17;;;;;;;62.40;31.47;;;;;;;;;;5066123;28;20021;-55
2021/01/03 02:59:42;;;;;;;51.63;29.50;;;;;;;;;;5059590;28;20478;-53
2021/01/03 03:02:08;;;;;;;51.80;28.43;;;;;;;;;;5067549;28;20028;-55
2021/01/03 03:04:33;;;;;;;50.57;27.70;;;;;;;;;;5069496;28;20048;-57
2021/01/03 03:06:58;;;;;;;55.93;29.10;;;;;;;;;;5069138;28;20111;-55
2021/01/03 03:09:23;;;;;;;52.10;28.40;;;;;;;;;;5083679;28;20486;-55
2021/01/03 03:11:48;;;;;;;57.00;29.73;;;;;;;;;;5060832;28;20021;-52
2021/01/03 03:14:14;;;;;;;44.20;25.10;;;;;;;;;;5063279;28;20025;-56
2021/01/03 03:16:40;;;;;;;53.17;29.67;;;;;;;;;;5057238;28;20024;-56
2021/01/03 03:19:05;;;;;;;57.00;29.97;;;;;;;;;;5069281;28;20104;-52
2021/01/03 03:21:30;;;;;;;53.20;29.37;;;;;;;;;;5071559;28;20016;-56
2021/01/03 03:23:56;;;;;;;58.80;31.53;;;;;;;;;;5063940;28;20048;-57
2021/01/03 03:26:21;;;;;;;42.87;24.80;;;;;;;;;;5055430;28;20021;-57
2021/01/03 03:28:46;;;;;;;51.93;28.43;;;;;;;;;;5068132;28;20028;-58
2021/01/03 03:31:11;;;;;;;40.13;23.80;;;;;;;;;;5053285;28;20021;-57
2021/01/03 03:33:36;;;;;;;45.77;25.70;;;;;;;;;;5075784;28;20374;-58
2021/01/03 03:36:02;;;;;;;38.10;23.77;;;;;;;;;;5071692;28;20103;-56
2021/01/03 03:38:27;;;;;;;45.03;25.10;;;;;;;;;;5062983;28;20020;-57
2021/01/03 03:40:52;;;;;;;44.87;26.23;;;;;;;;;;5054309;28;20086;-56
2021/01/03 03:43:17;;;;;;;39.77;23.37;;;;;;;;;;5055202;28;20028;-58
2021/01/03 03:45:43;;;;;;;38.37;23.10;;;;;;;;;;5055323;28;20032;-54
2021/01/03 03:48:08;;;;;;;36.97;22.10;;;;;;;;;;5059753;28;20021;-55
2021/01/03 03:50:33;;;;;;;38.13;21.73;;;;;;;;;;5058723;28;20020;-58
2021/01/03 03:52:59;;;;;;;40.40;23.70;;;;;;;;;;5065495;28;20441;-53
2021/01/03 03:55:24;;;;;;;34.13;21.50;;;;;;;;;;5071763;28;20020;-57
2021/01/03 03:57:49;;;;;;;42.27;23.10;;;;;;;;;;5071185;28;20032;-54
2021/01/03 04:00:17;;;;;;;40.73;24.07;;;;;;;;;;5069243;28;20024;-55
2021/01/03 04:02:43;;;;;;;32.00;19.20;;;;;;;;;;5061345;28;20421;-57
2021/01/03 04:05:13;;;;;;;33.53;20.67;;;;;;;;;;5072804;28;20040;-57
2021/01/03 04:07:39;;;;;;;37.07;22.60;;;;;;;;;;5071510;28;20016;-56
2021/01/03 04:10:04;;;;;;;32.23;20.07;;;;;;;;;;5062976;28;20020;-56
2021/01/03 04:12:30;;;;;;;36.87;22.67;;;;;;;;;;5060596;28;20033;-56
2021/01/03 04:14:55;;;;;;;33.93;20.67;;;;;;;;;;5063478;28;20016;-56
2021/01/03 04:17:20;;;;;;;33.03;18.97;;;;;;;;;;5072179;28;20020;-56
2021/01/03 04:19:46;;;;;;;31.67;19.57;;;;;;;;;;5068992;28;20020;-56
2021/01/03 04:22:11;;;;;;;33.13;20.13;;;;;;;;;;5065234;28;20055;-56
2021/01/03 04:24:36;;;;;;;28.67;17.70;;;;;;;;;;5071980;28;20537;-56
2021/01/03 04:27:03;;;;;;;31.53;19.23;;;;;;;;;;5059456;28;20071;-55
2021/01/03 04:29:29;;;;;;;30.77;19.20;;;;;;;;;;5062523;28;20033;-57
2021/01/03 04:31:55;;;;;;;29.83;18.47;;;;;;;;;;5059671;28;20433;-56
2021/01/03 04:34:20;;;;;;;30.60;18.90;;;;;;;;;;5070502;28;20025;-56
2021/01/03 04:36:48;;;;;;;33.67;21.17;;;;;;;;;;5063844;28;20100;-53
2021/01/03 04:39:13;;;;;;;30.93;18.37;;;;;;;;;;5062822;28;20479;-54
2021/01/03 04:41:39;;;;;;;29.97;19.50;;;;;;;;;;5069700;28;20026;-56
2021/01/03 04:44:10;;;;;;;29.93;19.63;;;;;;;;;;5076886;28;20028;-55
2021/01/03 04:46:37;;;;;;;29.47;19.10;;;;;;;;;;5091118;28;20023;-54
2021/01/03 04:49:04;;;;;;;34.57;20.87;;;;;;;;;;5062503;28;20028;-57
2021/01/03 04:51:32;;;;;;;32.73;20.33;;;;;;;;;;5068165;28;20036;-57
2021/01/03 04:54:04;;;;;;;32.70;20.47;;;;;;;;;;5071661;28;20116;-54
2021/01/03 04:56:44;;;;;;;32.10;20.17;;;;;;;;;;5059157;28;20016;-51
2021/01/03 04:59:19;;;;;;;33.20;21.13;;;;;;;;;;5066982;28;20081;-55
2021/01/03 05:01:53;;;;;;;34.77;20.87;;;;;;;;;;5067519;28;20399;-55
2021/01/03 05:04:33;;;;;;;35.97;22.30;;;;;;;;;;5068932;28;20025;-56
2021/01/03 05:07:02;;;;;;;34.57;20.73;;;;;;;;;;5062068;28;20033;-55
2021/01/03 05:09:27;;;;;;;39.27;23.90;;;;;;;;;;5048627;28;20025;-57
2021/01/03 05:11:55;;;;;;;35.80;22.07;;;;;;;;;;5069060;28;20021;-55
2021/01/03 05:14:23;;;;;;;36.43;22.53;;;;;;;;;;5071171;28;20025;-55
2021/01/03 05:16:55;;;;;;;34.97;22.50;;;;;;;;;;5068111;28;20058;-56
2021/01/03 05:19:21;;;;;;;37.40;22.30;;;;;;;;;;5066362;28;20024;-57
2021/01/03 05:21:49;;;;;;;35.50;21.47;;;;;;;;;;5062958;28;20347;-56
2021/01/03 05:24:14;;;;;;;38.53;22.93;;;;;;;;;;5079728;28;20043;-56
2021/01/03 05:26:39;;;;;;;34.53;21.50;;;;;;;;;;5072203;28;20021;-57
2021/01/03 05:29:05;;;;;;;37.27;22.37;;;;;;;;;;5071520;28;20029;-56
2021/01/03 05:31:31;;;;;;;37.93;23.20;;;;;;;;;;5067593;28;20044;-57
2021/01/03 05:34:01;;;;;;;41.37;24.23;;;;;;;;;;5070425;28;20020;-55
2021/01/03 05:36:39;;;;;;;40.33;22.80;;;;;;;;;;5073477;28;20024;-56
2021/01/03 05:39:10;;;;;;;38.77;24.83;;;;;;;;;;5070424;28;20025;-55
2021/01/03 05:41:39;;;;;;;43.23;23.87;;;;;;;;;;5068378;28;20060;-56
2021/01/03 05:44:14;;;;;;;39.30;23.37;;;;;;;;;;5070004;28;20113;-56
2021/01/03 05:46:43;;;;;;;37.90;22.40;;;;;;;;;;5074742;28;20032;-56
2021/01/03 05:49:27;;;;;;;35.90;22.40;;;;;;;;;;5070428;28;20538;-55
2021/01/03 05:52:09;;;;;;;35.87;21.63;;;;;;;;;;5067389;28;20032;-57
2021/01/03 05:54:36;;;;;;;36.73;22.43;;;;;;;;;;5057941;28;20143;-56
2021/01/03 05:57:10;;;;;;;36.37;21.00;;;;;;;;;;5066347;28;20499;-55
2021/01/03 05:59:37;;;;;;;36.03;22.93;;;;;;;;;;5068208;28;20024;-55
2021/01/03 06:02:19;;;;;;;35.57;20.80;;;;;;;;;;5067598;28;20483;-54
2021/01/03 06:04:44;;;;;;;42.37;23.97;;;;;;;;;;5054520;28;20029;-55
2021/01/03 06:07:09;;;;;;;38.90;22.90;;;;;;;;;;5064879;28;20379;-56
2021/01/03 06:09:39;;;;;;;42.57;24.37;;;;;;;;;;5051183;28;20028;-56
2021/01/03 06:12:07;;;;;;;41.47;23.37;;;;;;;;;;5054352;28;20074;-56
2021/01/03 06:14:32;;;;;;;37.80;23.70;;;;;;;;;;5072815;28;20514;-56
2021/01/03 06:17:03;;;;;;;38.17;23.40;;;;;;;;;;5072840;28;20048;-56
2021/01/03 06:19:32;;;;;;;41.80;24.00;;;;;;;;;;5069677;28;20379;-57
2021/01/03 06:21:57;;;;;;;38.67;24.03;;;;;;;;;;5064116;28;20468;-54
2021/01/03 06:24:27;;;;;;;43.30;25.77;;;;;;;;;;5059506;28;20043;-54
2021/01/03 06:26:52;;;;;;;45.57;26.40;;;;;;;;;;5067493;28;20024;-56
2021/01/03 06:29:20;;;;;;;42.40;24.57;;;;;;;;;;5057018;28;20025;-57
2021/01/03 06:32:04;;;;;;;41.47;25.03;;;;;;;;;;5086337;28;20020;-56
2021/01/03 06:34:35;;;;;;;42.67;24.40;;;;;;;;;;5071131;28;20505;-53
2021/01/03 06:37:06;;;;;;;50.83;29.27;;;;;;;;;;5064650;28;20036;-56
2021/01/03 06:39:53;;;;;;;43.07;23.27;;;;;;;;;;5056801;28;20056;-55
2021/01/03 06:42:34;;;;;;;46.50;26.13;;;;;;;;;;5070510;28;20475;-53
2021/01/03 06:45:22;;;;;;;51.93;28.33;;;;;;;;;;5060621;28;20024;-56
2021/01/03 06:48:10;;;;;;;48.20;26.63;;;;;;;;;;5070751;28;20029;-53
2021/01/03 06:50:40;;;;;;;48.63;28.00;;;;;;;;;;5062633;28;20013;-55
2021/01/03 06:53:26;;;;;;;54.77;29.37;;;;;;;;;;5057679;28;20020;-54
2021/01/03 06:56:10;;;;;;;51.20;28.25;;;;;;;;;;5060798;28;20111;-55
2021/01/03 06:58:50;;;;;;;52.23;29.40;;;;;;;;;;5075069;28;20020;-54
2021/01/03 07:01:20;;;;;;;50.03;28.70;;;;;;;;;;5067718;28;20025;-56
2021/01/03 07:03:47;;;;;;;51.10;29.03;;;;;;;;;;5072992;28;20047;-54
2021/01/03 07:06:13;;;;;;;48.93;28.93;;;;;;;;;;5071573;28;20099;-56
2021/01/03 07:08:40;;;;;;;51.50;27.80;;;;;;;;;;5068630;28;20128;-53
2021/01/03 07:11:23;;;;;;;57.57;30.80;;;;;;;;;;5054394;28;20020;-55
2021/01/03 07:13:49;;;;;;;49.73;28.07;;;;;;;;;;5080891;28;20042;-56
2021/01/03 07:16:34;;;;;;;48.30;27.30;;;;;;;;;;5086004;28;20467;-54
2021/01/03 07:19:03;;;;;;;52.15;28.70;;;;;;;;;;5066616;28;20017;-56
2021/01/03 07:21:37;;;;;;;45.10;26.77;;;;;;;;;;5056885;28;20025;-55
2021/01/03 07:24:21;;;;;;;44.70;26.10;;;;;;;;;;5061020;28;20044;-56
2021/01/03 07:27:07;;;;;;;51.57;28.20;;;;;;;;;;5057951;28;20039;-53
2021/01/03 07:29:32;;;;;;;48.55;25.95;;;;;;;;;;5068087;28;20492;-55
2021/01/03 07:32:01;;;;;;;48.33;27.10;;;;;;;;;;5069180;28;20067;-54
2021/01/03 07:34:28;;;;;;;53.67;29.77;;;;;;;;;;5061938;28;20409;-54
2021/01/03 07:36:53;;;;;;;50.33;27.63;;;;;;;;;;5057540;28;20025;-57
2021/01/03 07:39:20;;;;;;;48.27;27.07;;;;;;;;;;5058110;28;20029;-56
2021/01/03 07:41:47;;;;;;;46.47;26.77;;;;;;;;;;5052652;28;20029;-57
2021/01/03 07:44:28;;;;;;;50.27;28.17;;;;;;;;;;5071379;28;20203;-53
2021/01/03 07:46:54;;;;;;;49.43;26.97;;;;;;;;;;5064278;28;20033;-53
2021/01/03 07:49:25;;;;;;;50.63;26.47;;;;;;;;;;5059807;28;20059;-53
2021/01/03 07:51:51;;;;;;;53.03;28.47;;;;;;;;;;5060445;28;20052;-57
2021/01/03 07:54:16;;;;;;;55.63;28.57;;;;;;;;;;5057108;28;20464;-53
2021/01/03 07:56:41;;;;;;;43.13;26.93;;;;;;;;;;5065307;28;20020;-54
2021/01/03 07:59:07;;;;;;;47.33;27.37;;;;;;;;;;5057502;28;20082;-53
2021/01/03 08:01:36;;;;;;;47.47;26.23;;;;;;;;;;5062612;28;20025;-53
2021/01/03 08:04:17;;;;;;;57.80;31.17;;;;;;;;;;5071788;28;20370;-55
2021/01/03 08:06:43;;;;;;;47.83;25.90;;;;;;;;;;5060992;28;20021;-54
2021/01/03 08:09:08;;;;;;;48.27;26.60;;;;;;;;;;5050423;28;20021;-55
2021/01/03 08:11:36;;;;;;;54.63;28.73;;;;;;;;;;5074304;28;20031;-54
2021/01/03 08:14:04;;;;;;;50.77;27.80;;;;;;;;;;5061234;28;20021;-56
2021/01/03 08:16:29;;;;;;;50.60;28.03;;;;;;;;;;5059899;28;20283;-55
2021/01/03 08:19:08;;;;;;;51.10;27.83;;;;;;;;;;5051029;28;20029;-54
2021/01/03 08:21:34;;;;;;;58.53;28.50;;;;;;;;;;5063445;28;20111;-55
2021/01/03 08:24:04;;;;;;;49.80;27.97;;;;;;;;;;5060253;28;20725;-53
2021/01/03 08:26:33;;;;;;;59.13;30.93;;;;;;;;;;5058036;28;20534;-51
2021/01/03 08:29:05;;;;;;;51.90;27.23;;;;;;;;;;5056691;28;20115;-53
2021/01/03 08:31:30;;;;;;;52.87;28.97;;;;;;;;;;5065680;28;20025;-55
2021/01/03 08:33:56;;;;;;;46.87;24.97;;;;;;;;;;5057297;28;20033;-56
2021/01/03 08:36:30;;;;;;;52.33;27.33;;;;;;;;;;5059457;28;20021;-52
2021/01/03 08:39:00;;;;;;;48.27;26.60;;;;;;;;;;5067700;28;20028;-55
2021/01/03 08:41:28;;;;;;;49.80;26.53;;;;;;;;;;5057046;28;20028;-52
2021/01/03 08:43:53;;;;;;;45.07;24.60;;;;;;;;;;5056338;28;20029;-54
2021/01/03 08:46:26;;;;;;;56.07;28.70;;;;;;;;;;5058369;28;20972;-52
2021/01/03 08:49:00;;;;;;;61.43;28.30;;;;;;;;;;5053907;28;20552;-53
2021/01/03 08:51:25;;;;;;;45.97;25.10;;;;;;;;;;5057032;28;20332;-57
2021/01/03 08:53:56;;;;;;;46.70;24.87;;;;;;;;;;5057029;28;20074;-53
2021/01/03 08:56:24;;;;;;;40.77;23.57;;;;;;;;;;5058194;28;20048;-54
2021/01/03 08:58:49;;;;;;;48.23;25.40;;;;;;;;;;5052011;28;20062;-53
2021/01/03 09:01:23;;;;;;;43.30;25.03;;;;;;;;;;5068746;28;20036;-55
2021/01/03 09:03:49;;;;;;;41.27;24.40;;;;;;;;;;5069859;28;20033;-54
2021/01/03 09:06:14;;;;;;;37.33;21.10;;;;;;;;;;5070011;28;20081;-55
2021/01/03 09:08:44;;;;;;;41.33;22.23;;;;;;;;;;5059556;28;20055;-55
2021/01/03 09:11:09;;;;;;;36.83;21.20;;;;;;;;;;5063415;28;20081;-56
2021/01/03 09:13:43;;;;;;;39.43;22.17;;;;;;;;;;5065038;28;20017;-56
2021/01/03 09:16:08;;;;;;;37.50;22.33;;;;;;;;;;5061558;28;20032;-56
2021/01/03 09:18:33;;;;;;;38.23;20.80;;;;;;;;;;5051704;28;20033;-52
2021/01/03 09:21:03;;;;;;;35.63;21.50;;;;;;;;;;5066774;28;20115;-53
2021/01/03 09:23:31;;;;;;;31.23;20.23;;;;;;;;;;5052963;28;20052;-54
2021/01/03 09:25:57;;;;;;;30.57;18.60;;;;;;;;;;5058201;28;20047;-55
2021/01/03 09:28:27;;;;;;;29.53;18.43;;;;;;;;;;5063346;28;20355;-54
2021/01/03 09:31:10;;;;;;;33.10;19.30;;;;;;;;;;5068273;28;20120;-53
2021/01/03 09:33:35;;;;;;;29.97;18.77;;;;;;;;;;5070475;28;20467;-51
2021/01/03 09:36:19;;;;;;;28.27;18.43;;;;;;;;;;5073245;28;20078;-55
2021/01/03 09:38:55;;;;;;;27.67;16.20;;;;;;;;;;5068950;28;20227;-52
2021/01/03 09:41:20;;;;;;;27.40;17.13;;;;;;;;;;5061382;28;20453;-50
2021/01/03 09:43:51;;;;;;;28.40;17.00;;;;;;;;;;5057436;28;20017;-53
2021/01/03 09:46:22;;;;;;;26.67;16.73;;;;;;;;;;5064700;28;20024;-54
2021/01/03 09:48:47;;;;;;;23.20;15.83;;;;;;;;;;5061112;28;20343;-56
2021/01/03 09:51:31;;;;;;;27.70;16.57;;;;;;;;;;5057215;28;20124;-50
2021/01/03 09:54:00;;;;;;;27.43;16.70;;;;;;;;;;5067764;28;20356;-50
2021/01/03 09:56:33;;;;;;;21.77;14.63;;;;;;;;;;5056560;28;20036;-55
2021/01/03 09:59:07;;;;;;;25.63;16.17;;;;;;;;;;5065501;28;20031;-55
2021/01/03 10:01:33;;;;;;;24.10;15.50;;;;;;;;;;5065316;28;20107;-50
2021/01/03 10:04:12;;;;;;;26.27;15.93;;;;;;;;;;5064681;28;20029;-53
2021/01/03 10:06:38;;;;;;;23.73;15.03;;;;;;;;;;5059811;28;20024;-54
2021/01/03 10:09:10;;;;;;;21.13;14.50;;;;;;;;;;5061392;28;20024;-55
2021/01/03 10:11:35;;;;;;;22.90;14.47;;;;;;;;;;5061770;28;20013;-55
2021/01/03 10:14:03;;;;;;;21.53;14.50;;;;;;;;;;5061663;28;20025;-56
2021/01/03 10:16:29;;;;;;;20.37;13.93;;;;;;;;;;5057802;28;20055;-54
2021/01/03 10:18:54;;;;;;;19.33;13.30;;;;;;;;;;5062114;28;20013;-53
2021/01/03 10:21:27;;;;;;;19.67;13.30;;;;;;;;;;5060183;28;20033;-55
2021/01/03 10:23:54;;;;;;;21.73;14.13;;;;;;;;;;5066827;28;20047;-54
2021/01/03 10:26:24;;;;;;;23.17;14.33;;;;;;;;;;5065470;28;20057;-51
2021/01/03 10:28:51;;;;;;;25.10;14.73;;;;;;;;;;5061616;28;20503;-54
2021/01/03 10:31:16;;;;;;;21.13;14.20;;;;;;;;;;5060923;28;20039;-54
2021/01/03 10:33:41;;;;;;;19.27;12.83;;;;;;;;;;5069734;28;20024;-53
2021/01/03 10:36:07;;;;;;;21.00;13.27;;;;;;;;;;5070374;28;20074;-55
2021/01/03 10:38:34;;;;;;;19.73;12.90;;;;;;;;;;5051962;28;20143;-56
2021/01/03 10:40:59;;;;;;;20.67;11.93;;;;;;;;;;5065599;28;20032;-54
2021/01/03 10:43:24;;;;;;;16.73;12.60;;;;;;;;;;5072493;28;20020;-56
2021/01/03 10:45:49;;;;;;;21.83;13.10;;;;;;;;;;5056828;28;20489;-53
2021/01/03 10:48:15;;;;;;;20.97;13.67;;;;;;;;;;5057639;28;20017;-52
2021/01/03 10:50:40;;;;;;;15.80;12.03;;;;;;;;;;5051550;28;20483;-54
2021/01/03 10:53:05;;;;;;;19.57;12.07;;;;;;;;;;5053270;28;20017;-55
2021/01/03 10:55:31;;;;;;;19.23;11.77;;;;;;;;;;5064515;28;20019;-53
2021/01/03 10:57:57;;;;;;;21.20;13.10;;;;;;;;;;5063011;28;20016;-55
2021/01/03 11:00:23;;;;;;;16.50;11.20;;;;;;;;;;5069556;28;20020;-54
2021/01/03 11:02:48;;;;;;;18.23;13.30;;;;;;;;;;5071617;28;20475;-56
2021/01/03 11:05:14;;;;;;;20.47;12.87;;;;;;;;;;5058487;28;20013;-54
2021/01/03 11:07:39;;;;;;;19.07;12.23;;;;;;;;;;5060437;28;20052;-53
2021/01/03 11:10:06;;;;;;;19.50;12.03;;;;;;;;;;5050677;28;20035;-53
2021/01/03 11:12:31;;;;;;;17.10;12.10;;;;;;;;;;5062707;28;20025;-53
2021/01/03 11:14:56;;;;;;;18.77;12.07;;;;;;;;;;5059979;28;20028;-54
2021/01/03 11:17:21;;;;;;;19.20;12.47;;;;;;;;;;5067378;28;20067;-55
2021/01/03 11:19:47;;;;;;;19.63;12.57;;;;;;;;;;5069069;28;20016;-56
2021/01/03 11:22:13;;;;;;;20.33;12.67;;;;;;;;;;5056350;28;20074;-55
2021/01/03 11:24:39;;;;;;;18.43;12.17;;;;;;;;;;5061309;28;20040;-54
2021/01/03 11:27:07;;;;;;;18.63;11.87;;;;;;;;;;5065569;28;20035;-55
2021/01/03 11:29:32;;;;;;;17.40;12.23;;;;;;;;;;5047965;28;20029;-53
2021/01/03 11:31:58;;;;;;;19.57;11.57;;;;;;;;;;5057124;28;20017;-53
2021/01/03 11:34:25;;;;;;;21.93;13.67;;;;;;;;;;5062139;28;20494;-52
2021/01/03 11:36:52;;;;;;;18.30;11.70;;;;;;;;;;5055913;28;20476;-55
2021/01/03 11:39:18;;;;;;;20.70;14.27;;;;;;;;;;5048022;28;20088;-55
2021/01/03 11:41:47;;;;;;;19.80;13.07;;;;;;;;;;5066674;28;20021;-57
2021/01/03 11:44:13;;;;;;;22.77;13.40;;;;;;;;;;5057824;28;20020;-54
2021/01/03 11:46:38;;;;;;;22.10;13.37;;;;;;;;;;5058169;28;20021;-55
2021/01/03 11:49:03;;;;;;;30.03;16.97;;;;;;;;;;5051269;28;20043;-53
2021/01/03 11:51:29;;;;;;;27.13;15.67;;;;;;;;;;5066662;28;20017;-55
2021/01/03 11:53:54;;;;;;;22.63;13.83;;;;;;;;;;5071122;28;20119;-55
2021/01/03 11:56:20;;;;;;;23.37;14.57;;;;;;;;;;5073963;28;20016;-57
2021/01/03 11:58:46;;;;;;;20.47;13.13;;;;;;;;;;5079468;28;20020;-55
2021/01/03 12:01:11;;;;;;;22.23;13.47;;;;;;;;;;5062144;28;20020;-53
2021/01/03 12:03:36;;;;;;;21.43;13.80;;;;;;;;;;5066303;28;20096;-57
2021/01/03 12:06:02;;;;;;;23.13;13.97;;;;;;;;;;5066656;28;20024;-55
2021/01/03 12:08:27;;;;;;;20.37;12.80;;;;;;;;;;5069370;28;20135;-55
2021/01/03 12:10:52;;;;;;;21.83;14.30;;;;;;;;;;5068194;28;20020;-54
2021/01/03 12:13:17;;;;;;;21.37;13.03;;;;;;;;;;5055642;28;20013;-56
2021/01/03 12:15:43;;;;;;;20.23;13.47;;;;;;;;;;5069876;28;20027;-54
2021/01/03 12:18:08;;;;;;;20.60;13.10;;;;;;;;;;5057307;28;20096;-52
2021/01/03 12:20:33;;;;;;;21.47;13.37;;;;;;;;;;5067978;28;20009;-54
2021/01/03 12:22:58;;;;;;;19.57;13.30;;;;;;;;;;5070842;28;20043;-56
2021/01/03 12:25:24;;;;;;;20.73;13.07;;;;;;;;;;5066992;28;20379;-53
2021/01/03 12:27:49;;;;;;;22.27;13.97;;;;;;;;;;5070168;28;20486;-55
2021/01/03 12:30:14;;;;;;;27.57;15.20;;;;;;;;;;5048805;28;20021;-51
2021/01/03 12:32:40;;;;;;;23.77;13.93;;;;;;;;;;5051629;28;20380;-54
2021/01/03 12:35:07;;;;;;;25.17;15.43;;;;;;;;;;5059264;28;20021;-51
2021/01/03 12:37:32;;;;;;;25.07;15.17;;;;;;;;;;5054902;28;20017;-55
2021/01/03 12:39:57;;;;;;;23.63;13.63;;;;;;;;;;5070273;28;20437;-53
2021/01/03 12:42:23;;;;;;;23.57;13.87;;;;;;;;;;5072857;28;20024;-52
2021/01/03 12:44:48;;;;;;;24.03;14.60;;;;;;;;;;5060766;28;20056;-52
2021/01/03 12:47:14;;;;;;;24.17;15.07;;;;;;;;;;5060839;28;20028;-53
2021/01/03 12:49:39;;;;;;;25.37;14.93;;;;;;;;;;5052531;28;20375;-55
2021/01/03 12:52:05;;;;;;;22.93;14.50;;;;;;;;;;5060196;28;20482;-52
2021/01/03 12:54:30;;;;;;;23.30;15.13;;;;;;;;;;5069801;28;20020;-53
2021/01/03 12:56:55;;;;;;;22.13;13.83;;;;;;;;;;5073252;28;20356;-54
2021/01/03 12:59:21;;;;;;;23.50;14.23;;;;;;;;;;5063726;28;20029;-56
2021/01/03 13:01:46;;;;;;;25.17;14.20;;;;;;;;;;5073959;28;20027;-55
2021/01/03 13:04:14;;;;;;;27.50;15.97;;;;;;;;;;5075266;28;20020;-53
2021/01/03 13:06:40;;;;;;;24.47;14.60;;;;;;;;;;5064533;28;20056;-55
2021/01/03 13:09:07;;;;;;;21.33;14.17;;;;;;;;;;5053204;28;20130;-52
2021/01/03 13:11:32;;;;;;;21.70;13.23;;;;;;;;;;5076699;28;20423;-54
2021/01/03 13:13:57;;;;;;;25.20;14.23;;;;;;;;;;5064941;28;20102;-49
2021/01/03 13:16:23;;;;;;;25.43;14.50;;;;;;;;;;5059258;28;20024;-54
2021/01/03 13:18:48;;;;;;;27.30;15.50;;;;;;;;;;5052656;28;20312;-55
2021/01/03 13:21:14;;;;;;;25.23;15.50;;;;;;;;;;5064256;28;20082;-56
2021/01/03 13:23:39;;;;;;;25.00;14.87;;;;;;;;;;5074806;28;20124;-56
2021/01/03 13:26:04;;;;;;;23.27;14.30;;;;;;;;;;5071762;28;20060;-55
2021/01/03 13:28:30;;;;;;;22.30;14.37;;;;;;;;;;5063358;28;20028;-52
2021/01/03 13:30:55;;;;;;;26.40;15.97;;;;;;;;;;5059253;28;20367;-53
2021/01/03 13:33:20;;;;;;;24.37;14.60;;;;;;;;;;5067444;28;20439;-56
2021/01/03 13:35:45;;;;;;;23.30;13.97;;;;;;;;;;5072441;28;20048;-53
2021/01/03 13:38:11;;;;;;;25.93;15.67;;;;;;;;;;5069139;28;20009;-55
2021/01/03 13:40:36;;;;;;;26.77;15.33;;;;;;;;;;5052745;28;20114;-53
2021/01/03 13:43:02;;;;;;;24.70;14.47;;;;;;;;;;5056154;28;20096;-54
2021/01/03 13:45:27;;;;;;;26.73;14.80;;;;;;;;;;5062781;28;20441;-53
2021/01/03 13:47:52;;;;;;;24.53;15.13;;;;;;;;;;5068441;28;20031;-56
2021/01/03 13:50:18;;;;;;;25.07;15.43;;;;;;;;;;5065354;28;20100;-56
2021/01/03 13:52:43;;;;;;;28.57;14.27;;;;;;;;;;5056219;28;20105;-56
2021/01/03 13:55:10;;;;;;;25.70;14.70;;;;;;;;;;5065706;28;20357;-55
2021/01/03 13:57:36;;;;;;;24.73;14.00;;;;;;;;;;5074429;28;20024;-54
2021/01/03 14:00:03;;;;;;;26.20;14.87;;;;;;;;;;5059770;28;20111;-55
2021/01/03 14:02:28;;;;;;;25.83;15.00;;;;;;;;;;5056054;28;20020;-56
2021/01/03 14:04:53;;;;;;;24.37;14.13;;;;;;;;;;5069295;28;20024;-56
2021/01/03 14:07:18;;;;;;;25.53;14.57;;;;;;;;;;5083987;28;20036;-58
2021/01/03 14:09:44;;;;;;;25.47;15.43;;;;;;;;;;5061883;28;20028;-56
2021/01/03 14:12:09;;;;;;;28.03;16.10;;;;;;;;;;5053988;28;20029;-55
2021/01/03 14:14:34;;;;;;;26.83;15.07;;;;;;;;;;5054919;28;20013;-57
2021/01/03 14:17:00;;;;;;;28.53;16.40;;;;;;;;;;5054095;28;20039;-55
2021/01/03 14:19:26;;;;;;;27.00;15.73;;;;;;;;;;5049452;28;20476;-55